createdAt,value
2022-12-09T00:00:06.719Z,74.09
2022-12-09T00:02:33.869Z,74.15
2022-12-09T00:05:00.641Z,74.99
2022-12-09T00:07:27.635Z,75.43
2022-12-09T00:09:54.036Z,74.77
2022-12-09T00:12:23.774Z,74.74
2022-12-09T00:14:50.353Z,74.77
2022-12-09T00:17:16.949Z,75.05
2022-12-09T00:19:43.423Z,74.88
2022-12-09T00:22:10.095Z,74.74
2022-12-09T00:24:36.511Z,74.13
2022-12-09T00:27:03.304Z,73.91
2022-12-09T00:29:29.781Z,74.58
2022-12-09T00:31:57.045Z,74.79
2022-12-09T00:34:26.528Z,74.74
2022-12-09T00:36:52.945Z,74.61
2022-12-09T00:39:19.398Z,74.54
2022-12-09T00:41:46.130Z,74.29
2022-12-09T00:44:12.705Z,74.36
2022-12-09T00:46:39.257Z,74.02
2022-12-09T00:49:05.747Z,74.03
2022-12-09T00:51:32.211Z,74.06
2022-12-09T00:53:58.952Z,74.19
2022-12-09T00:56:28.349Z,73.85
2022-12-09T00:58:55.911Z,74.69
2022-12-09T01:01:23.181Z,74.72
2022-12-09T01:03:49.862Z,74.30
2022-12-09T01:06:23.357Z,74.67
2022-12-09T01:08:50.275Z,74.67
2022-12-09T01:11:20.534Z,74.46
2022-12-09T01:13:48.910Z,75.01
2022-12-09T01:16:27.538Z,74.80
2022-12-09T01:18:55.303Z,74.81
2022-12-09T01:21:21.793Z,75.58
2022-12-09T01:23:48.214Z,76.34
2022-12-09T01:26:14.896Z,75.36
2022-12-09T01:28:41.962Z,74.94
2022-12-09T01:31:14.000Z,74.73
2022-12-09T01:33:42.102Z,75.02
2022-12-09T01:36:22.166Z,74.69
2022-12-09T01:38:48.748Z,75.58
2022-12-09T01:41:17.201Z,75.62
2022-12-09T01:43:43.968Z,75.43
2022-12-09T01:46:10.776Z,75.92
2022-12-09T01:48:42.269Z,75.70
2022-12-09T01:51:15.674Z,76.40
2022-12-09T01:53:46.483Z,76.35
2022-12-09T01:56:19.372Z,75.76
2022-12-09T01:58:47.010Z,75.58
2022-12-09T02:01:14.447Z,75.38
2022-12-09T02:03:41.197Z,76.48
2022-12-09T02:06:08.118Z,76.00
2022-12-09T02:08:34.720Z,76.08
2022-12-09T02:11:19.667Z,75.24
2022-12-09T02:14:04.563Z,75.72
2022-12-09T02:16:46.936Z,76.13
2022-12-09T02:19:34.998Z,75.37
2022-12-09T02:22:01.760Z,75.52
2022-12-09T02:24:55.033Z,75.76
2022-12-09T02:27:37.680Z,76.30
2022-12-09T02:30:12.527Z,76.40
2022-12-09T02:33:01.306Z,75.49
2022-12-09T02:35:32.554Z,76.23
2022-12-09T02:38:14.468Z,75.89
2022-12-09T02:40:50.455Z,76.46
2022-12-09T02:43:22.323Z,76.80
2022-12-09T02:45:50.571Z,75.63
2022-12-09T02:48:23.091Z,75.41
2022-12-09T02:50:52.815Z,75.69
2022-12-09T02:53:19.819Z,74.83
2022-12-09T02:55:49.070Z,75.22
2022-12-09T02:58:15.762Z,75.54
2022-12-09T03:00:42.957Z,75.24
2022-12-09T03:03:15.192Z,75.10
2022-12-09T03:05:47.383Z,75.06
2022-12-09T03:08:29.116Z,74.49
2022-12-09T03:11:10.838Z,75.14
2022-12-09T03:13:52.418Z,75.09
2022-12-09T03:16:36.857Z,74.87
2022-12-09T03:19:37.141Z,75.37
2022-12-09T03:22:08.807Z,74.97
2022-12-09T03:25:01.705Z,75.39
2022-12-09T03:27:43.556Z,76.35
2022-12-09T03:30:11.362Z,77.12
2022-12-09T03:32:42.910Z,76.39
2022-12-09T03:35:15.509Z,76.97
2022-12-09T03:37:44.833Z,78.06
2022-12-09T03:40:16.102Z,76.96
2022-12-09T03:42:51.369Z,76.50
2022-12-09T03:45:19.616Z,76.60
2022-12-09T03:47:46.793Z,77.00
2022-12-09T03:50:14.072Z,76.63
2022-12-09T03:52:53.413Z,78.88
2022-12-09T03:55:29.499Z,77.75
2022-12-09T03:58:00.133Z,77.54
2022-12-09T04:00:27.584Z,76.48
2022-12-09T04:02:54.462Z,76.21
2022-12-09T04:05:21.084Z,76.65
2022-12-09T04:07:47.773Z,76.26
2022-12-09T04:10:14.373Z,75.86
2022-12-09T04:12:40.999Z,76.38
2022-12-09T04:15:08.333Z,75.17
2022-12-09T04:17:35.189Z,77.38
2022-12-09T04:20:04.843Z,78.37
2022-12-09T04:22:31.868Z,77.54
2022-12-09T04:24:58.334Z,77.12
2022-12-09T04:27:24.837Z,76.99
2022-12-09T04:29:51.346Z,76.21
2022-12-09T04:32:17.970Z,75.74
2022-12-09T04:34:45.417Z,75.17
2022-12-09T04:37:13.038Z,74.66
2022-12-09T04:39:41.961Z,74.92
2022-12-09T04:42:09.322Z,74.87
2022-12-09T04:44:35.970Z,74.66
2022-12-09T04:47:02.814Z,75.40
2022-12-09T04:49:29.601Z,74.44
2022-12-09T04:54:33.945Z,76.67
2022-12-09T04:57:00.457Z,75.99
2022-12-09T04:59:28.915Z,75.48
2022-12-09T05:04:23.292Z,75.10
2022-12-09T05:06:50.114Z,75.55
2022-12-09T05:09:16.915Z,75.24
2022-12-09T05:11:43.776Z,75.49
2022-12-09T05:14:10.709Z,75.74
2022-12-09T05:16:37.418Z,74.71
2022-12-09T05:19:04.152Z,74.85
2022-12-09T05:21:30.943Z,74.91
2022-12-09T05:23:57.611Z,74.59
2022-12-09T05:26:24.355Z,74.58
2022-12-09T05:28:52.403Z,73.96
2022-12-09T05:31:22.066Z,74.09
2022-12-09T05:33:50.426Z,73.90
2022-12-09T05:36:20.155Z,74.17
2022-12-09T05:38:47.040Z,75.43
2022-12-09T05:41:14.242Z,74.99
2022-12-09T05:43:41.076Z,74.46
2022-12-09T05:46:08.605Z,74.70
2022-12-09T05:48:36.252Z,74.75
2022-12-09T05:51:18.686Z,73.74
2022-12-09T05:53:45.588Z,73.97
2022-12-09T05:56:16.366Z,74.45
2022-12-09T05:58:43.798Z,74.15
2022-12-09T06:01:10.754Z,73.79
2022-12-09T06:03:38.511Z,73.42
2022-12-09T06:06:11.399Z,74.24
2022-12-09T06:08:39.463Z,73.81
2022-12-09T06:11:11.874Z,74.43
2022-12-09T06:13:38.372Z,74.56
2022-12-09T06:16:06.166Z,74.09
2022-12-09T06:18:33.229Z,74.04
2022-12-09T06:21:04.378Z,73.77
2022-12-09T06:23:30.982Z,74.73
2022-12-09T06:25:57.883Z,75.18
2022-12-09T06:28:24.504Z,75.42
2022-12-09T06:30:51.263Z,75.34
2022-12-09T06:33:52.384Z,74.51
2022-12-09T06:36:05.430Z,74.27
2022-12-09T06:38:32.290Z,74.12
2022-12-09T06:40:58.919Z,74.91
2022-12-09T06:43:28.354Z,74.96
2022-12-09T06:45:54.831Z,74.12
2022-12-09T06:48:24.384Z,75.15
2022-12-09T06:50:52.091Z,75.77
2022-12-09T06:53:18.866Z,76.66
2022-12-09T06:55:45.611Z,75.89
2022-12-09T06:58:12.265Z,74.94
2022-12-09T07:00:40.539Z,74.98
2022-12-09T07:03:07.616Z,75.08
2022-12-09T07:05:34.443Z,75.29
2022-12-09T07:08:01.895Z,75.98
2022-12-09T07:10:29.952Z,77.26
2022-12-09T07:12:56.829Z,75.21
2022-12-09T07:15:23.583Z,74.70
2022-12-09T07:17:50.486Z,74.55
2022-12-09T07:20:17.927Z,74.07
2022-12-09T07:22:44.830Z,73.88
2022-12-09T07:25:11.599Z,73.84
2022-12-09T07:27:39.796Z,73.83
2022-12-09T07:30:07.041Z,73.91
2022-12-09T07:32:33.816Z,73.81
2022-12-09T07:35:00.596Z,73.85
2022-12-09T07:37:27.645Z,73.71
2022-12-09T07:39:54.642Z,74.40
2022-12-09T07:42:21.175Z,73.42
2022-12-09T07:44:49.655Z,74.24
2022-12-09T07:47:18.919Z,74.32
2022-12-09T07:49:46.010Z,75.95
2022-12-09T07:52:13.482Z,75.90
2022-12-09T07:54:40.589Z,74.84
2022-12-09T07:57:07.407Z,75.25
2022-12-09T07:59:34.262Z,76.38
2022-12-09T08:02:05.663Z,76.26
2022-12-09T08:04:35.338Z,75.13
2022-12-09T08:07:02.553Z,75.85
2022-12-09T08:09:29.519Z,76.52
2022-12-09T08:11:56.610Z,76.06
2022-12-09T08:14:23.444Z,75.51
2022-12-09T08:16:50.104Z,75.10
2022-12-09T08:19:17.068Z,75.58
2022-12-09T08:21:45.500Z,74.43
2022-12-09T08:24:13.961Z,74.16
2022-12-09T08:26:41.121Z,75.38
2022-12-09T08:29:13.162Z,75.89
2022-12-09T08:31:43.713Z,75.63
2022-12-09T08:34:11.124Z,74.28
2022-12-09T08:36:38.583Z,74.22
2022-12-09T08:39:05.365Z,74.34
2022-12-09T08:41:35.352Z,75.17
2022-12-09T08:44:09.058Z,74.22
2022-12-09T08:46:38.109Z,75.69
2022-12-09T08:49:05.382Z,75.25
2022-12-09T08:51:32.596Z,74.31
2022-12-09T08:54:00.368Z,76.00
2022-12-09T08:56:27.733Z,75.91
2022-12-09T08:58:55.612Z,73.67
2022-12-09T09:01:26.127Z,72.63
2022-12-09T09:03:53.691Z,73.17
2022-12-09T09:06:20.575Z,74.00
2022-12-09T09:08:47.793Z,73.36
2022-12-09T09:11:17.968Z,73.07
2022-12-09T09:13:46.957Z,73.70
2022-12-09T09:16:24.970Z,72.97
2022-12-09T09:18:53.356Z,71.79
2022-12-09T09:21:23.591Z,72.71
2022-12-09T09:23:51.056Z,72.68
2022-12-09T09:26:24.007Z,72.61
2022-12-09T09:28:53.129Z,73.78
2022-12-09T09:33:50.147Z,72.93
2022-12-09T09:36:22.580Z,73.72
2022-12-09T09:38:50.832Z,71.59
2022-12-09T09:41:53.067Z,68.03
2022-12-09T09:44:35.458Z,67.52
2022-12-09T09:47:12.283Z,64.27
2022-12-09T09:49:52.763Z,66.04
2022-12-09T09:52:28.275Z,66.46
2022-12-09T09:54:54.974Z,68.40
2022-12-09T09:57:43.885Z,67.59
2022-12-09T10:00:27.776Z,68.76
2022-12-09T10:02:58.234Z,69.76
2022-12-09T10:05:25.411Z,70.85
2022-12-09T10:08:29.998Z,72.13
2022-12-09T10:11:18.041Z,74.21
2022-12-09T10:14:03.979Z,75.33
2022-12-09T10:16:41.500Z,76.69
2022-12-09T10:19:33.008Z,76.62
2022-12-09T10:22:11.879Z,76.32
2022-12-09T10:24:47.599Z,76.45
2022-12-09T10:27:29.138Z,76.99
2022-12-09T10:30:07.449Z,75.47
2022-12-09T10:32:37.479Z,79.10
2022-12-09T10:35:23.800Z,78.50
2022-12-09T10:37:52.668Z,77.68
2022-12-09T10:40:25.580Z,78.13
2022-12-09T10:43:14.486Z,80.17
2022-12-09T10:48:47.273Z,79.93
2022-12-09T10:51:23.042Z,80.17
2022-12-09T10:54:15.380Z,82.15
2022-12-09T10:57:07.604Z,81.39
2022-12-09T10:59:35.977Z,81.07
2022-12-09T11:02:22.981Z,80.77
2022-12-09T11:04:50.516Z,80.68
2022-12-09T11:07:20.915Z,79.63
2022-12-09T11:09:51.156Z,78.77
2022-12-09T11:12:27.358Z,78.74
2022-12-09T11:14:55.010Z,77.77
2022-12-09T11:17:26.779Z,77.51
2022-12-09T11:20:08.360Z,78.43
2022-12-09T11:22:44.132Z,77.51
2022-12-09T11:25:29.574Z,76.82
2022-12-09T11:28:04.202Z,75.67
2022-12-09T11:30:57.474Z,79.17
2022-12-09T11:33:36.676Z,76.73
2022-12-09T11:36:10.529Z,77.05
2022-12-09T11:38:38.709Z,77.09
2022-12-09T11:41:10.978Z,75.46
2022-12-09T11:43:55.606Z,76.59
2022-12-09T11:46:26.001Z,77.03
2022-12-09T11:48:57.961Z,77.00
2022-12-09T11:51:37.652Z,77.50
2022-12-09T11:54:28.895Z,79.11
2022-12-09T11:56:58.126Z,78.31
2022-12-09T11:59:36.362Z,77.44
2022-12-09T12:02:45.784Z,78.50
2022-12-09T12:05:32.303Z,79.48
2022-12-09T12:08:24.833Z,80.29
2022-12-09T12:11:13.433Z,77.95
2022-12-09T12:13:50.611Z,78.93
2022-12-09T12:16:58.782Z,76.64
2022-12-09T12:19:35.304Z,77.70
2022-12-09T12:22:31.092Z,78.18
2022-12-09T12:25:27.918Z,76.95
2022-12-09T12:28:15.967Z,76.56
2022-12-09T12:31:07.284Z,76.72
2022-12-09T12:34:16.199Z,79.44
2022-12-09T12:36:54.125Z,78.72
2022-12-09T12:39:39.216Z,79.20
2022-12-09T12:43:11.962Z,83.00
2022-12-09T12:46:19.426Z,79.02
2022-12-09T12:49:04.873Z,79.80
2022-12-09T12:52:09.977Z,77.93
2022-12-09T12:54:45.568Z,80.26
2022-12-09T12:57:20.978Z,79.44
2022-12-09T13:00:12.864Z,79.32
2022-12-09T13:03:05.900Z,78.48
2022-12-09T13:05:39.650Z,79.75
2022-12-09T13:08:43.595Z,80.72
2022-12-09T13:11:28.305Z,80.01
2022-12-09T13:14:03.384Z,78.54
2022-12-09T13:16:34.398Z,77.24
2022-12-09T13:19:34.326Z,78.93
2022-12-09T13:22:01.155Z,78.20
2022-12-09T13:24:42.666Z,79.18
2022-12-09T13:27:23.332Z,78.03
2022-12-09T13:30:08.715Z,78.43
2022-12-09T13:33:02.972Z,78.07
2022-12-09T13:35:54.656Z,77.98
2022-12-09T13:38:33.071Z,77.59
2022-12-09T13:41:00.005Z,77.74
2022-12-09T13:43:30.177Z,77.55
2022-12-09T13:45:59.596Z,76.66
2022-12-09T13:48:29.083Z,76.30
2022-12-09T13:50:59.416Z,76.40
2022-12-09T13:53:33.859Z,78.38
2022-12-09T13:56:02.192Z,77.24
2022-12-09T13:58:56.529Z,77.44
2022-12-09T14:01:54.748Z,76.12
2022-12-09T14:04:24.922Z,75.54
2022-12-09T14:07:10.600Z,75.17
2022-12-09T14:09:48.704Z,76.44
2022-12-09T14:12:41.017Z,76.10
2022-12-09T14:15:25.832Z,76.77
2022-12-09T14:17:52.235Z,77.39
2022-12-09T14:20:29.058Z,77.22
2022-12-09T14:23:07.630Z,75.92
2022-12-09T14:25:33.970Z,77.19
2022-12-09T14:28:09.667Z,77.36
2022-12-09T14:31:04.799Z,75.44
2022-12-09T14:33:46.533Z,74.82
2022-12-09T14:36:12.899Z,74.84
2022-12-09T14:41:59.074Z,74.66
2022-12-09T14:44:37.486Z,74.29
2022-12-09T14:47:18.574Z,74.64
2022-12-09T14:49:49.133Z,74.43
2022-12-09T14:52:29.346Z,75.15
2022-12-09T14:54:58.538Z,74.62
2022-12-09T14:57:33.625Z,74.89
2022-12-09T15:00:00.086Z,73.87
2022-12-09T15:02:32.059Z,73.81
2022-12-09T15:05:00.907Z,73.56
2022-12-09T15:07:29.867Z,73.79
2022-12-09T15:10:00.997Z,72.94
2022-12-09T15:12:53.124Z,73.43
2022-12-09T15:15:23.876Z,72.77
2022-12-09T15:18:02.837Z,74.63
2022-12-09T15:20:36.903Z,74.31
2022-12-09T15:23:16.607Z,73.63
2022-12-09T15:26:05.243Z,72.71
2022-12-09T15:28:34.922Z,73.32
2022-12-09T15:31:01.377Z,74.28
2022-12-09T15:33:39.787Z,73.65
2022-12-09T15:36:13.723Z,75.03
2022-12-09T15:38:47.670Z,73.81
2022-12-09T15:41:33.843Z,73.12
2022-12-09T15:44:06.229Z,75.48
2022-12-09T15:46:35.070Z,75.35
2022-12-09T15:49:04.205Z,75.35
2022-12-09T15:51:33.082Z,76.29
2022-12-09T15:54:06.347Z,76.15
2022-12-09T15:56:38.155Z,75.51
2022-12-09T15:59:12.511Z,76.34
2022-12-09T16:01:39.152Z,74.31
2022-12-09T16:04:08.872Z,74.87
2022-12-09T16:06:37.729Z,73.27
2022-12-09T16:09:13.146Z,73.18
2022-12-09T16:11:45.714Z,73.39
2022-12-09T16:14:13.196Z,73.75
2022-12-09T16:16:45.502Z,72.60
2022-12-09T16:19:25.664Z,73.68
2022-12-09T16:24:17.313Z,72.69
2022-12-09T16:26:46.510Z,72.34
2022-12-09T16:29:28.581Z,73.10
2022-12-09T16:31:58.468Z,73.41
2022-12-09T16:34:26.582Z,73.29
2022-12-09T16:36:55.787Z,73.54
2022-12-09T16:39:25.072Z,77.15
2022-12-09T16:44:36.566Z,77.88
2022-12-09T16:47:02.974Z,78.96
2022-12-09T16:49:36.974Z,76.66
2022-12-09T16:52:03.830Z,75.26
2022-12-09T16:54:30.410Z,76.87
2022-12-09T16:56:57.164Z,80.12
2022-12-09T16:59:31.903Z,77.24
2022-12-09T17:02:02.636Z,76.77
2022-12-09T17:04:29.434Z,76.50
2022-12-09T17:06:56.248Z,79.66
2022-12-09T17:09:22.663Z,80.17
2022-12-09T17:11:49.475Z,78.24
2022-12-09T17:14:17.275Z,80.76
2022-12-09T17:16:43.723Z,81.38
2022-12-09T17:19:10.125Z,81.05
2022-12-09T17:21:36.860Z,83.35
2022-12-09T17:24:03.428Z,83.12
2022-12-09T17:26:29.799Z,80.76
2022-12-09T17:29:01.660Z,80.27
2022-12-09T17:31:29.247Z,83.03
2022-12-09T17:33:57.027Z,80.68
2022-12-09T17:36:23.524Z,81.21
2022-12-09T17:38:49.966Z,81.15
2022-12-09T17:41:20.496Z,83.95
2022-12-09T17:43:47.319Z,82.92
2022-12-09T17:46:14.192Z,83.21
2022-12-09T17:48:41.794Z,81.73
2022-12-09T17:51:10.676Z,81.41
2022-12-09T17:53:39.059Z,81.60
2022-12-09T17:56:12.078Z,80.89
2022-12-09T17:58:38.692Z,82.92
2022-12-09T18:01:12.259Z,83.08
2022-12-09T18:03:55.456Z,82.68
2022-12-09T18:06:22.785Z,82.06
2022-12-09T18:08:49.170Z,83.63
2022-12-09T18:11:15.611Z,82.58
2022-12-09T18:13:42.054Z,84.55
2022-12-09T18:16:12.618Z,81.04
2022-12-09T18:18:39.966Z,80.66
2022-12-09T18:21:13.646Z,79.05
2022-12-09T18:23:42.166Z,81.57
2022-12-09T18:26:10.577Z,83.01
2022-12-09T18:28:37.691Z,80.90
2022-12-09T18:31:12.826Z,83.78
2022-12-09T18:33:39.792Z,83.74
2022-12-09T18:36:16.663Z,83.77
2022-12-09T18:38:43.506Z,83.91
2022-12-09T18:41:14.485Z,83.45
2022-12-09T18:43:43.322Z,84.53
2022-12-09T18:46:37.642Z,83.48
2022-12-09T18:49:12.186Z,84.24
2022-12-09T18:51:40.208Z,83.69
2022-12-09T18:54:07.578Z,79.72
2022-12-09T18:56:35.360Z,78.27
2022-12-09T18:59:07.042Z,79.98
2022-12-09T19:01:39.426Z,77.72
2022-12-09T19:04:11.471Z,79.27
2022-12-09T19:06:39.935Z,81.44
2022-12-09T19:09:10.290Z,83.26
2022-12-09T19:11:38.870Z,82.40
2022-12-09T19:14:07.155Z,79.54
2022-12-09T19:16:35.132Z,77.85
2022-12-09T19:19:08.773Z,78.01
2022-12-09T19:21:36.433Z,80.40
2022-12-09T19:24:02.830Z,80.32
2022-12-09T19:26:32.085Z,81.67
2022-12-09T19:29:01.324Z,80.33
2022-12-09T19:31:32.206Z,79.91
2022-12-09T19:34:01.362Z,81.97
2022-12-09T19:36:29.244Z,82.58
2022-12-09T19:38:57.700Z,82.66
2022-12-09T19:41:24.233Z,83.69
2022-12-09T19:43:58.219Z,85.42
2022-12-09T19:46:26.556Z,84.82
2022-12-09T19:48:53.814Z,82.15
2022-12-09T19:51:21.503Z,79.44
2022-12-09T19:53:48.742Z,82.70
2022-12-09T19:56:17.824Z,84.22
2022-12-09T19:58:44.902Z,84.93
2022-12-09T20:01:26.250Z,83.37
2022-12-09T20:04:09.081Z,83.67
2022-12-09T20:06:47.911Z,83.23
2022-12-09T20:09:18.255Z,84.54
2022-12-09T20:11:44.933Z,82.88
2022-12-09T20:14:13.458Z,82.70
2022-12-09T20:16:40.221Z,82.65
2022-12-09T20:19:07.335Z,82.25
2022-12-09T20:21:35.181Z,79.22
2022-12-09T20:24:02.413Z,79.06
2022-12-09T20:26:31.505Z,82.20
2022-12-09T20:29:01.685Z,85.82
2022-12-09T20:31:31.617Z,85.65
2022-12-09T20:34:01.776Z,86.49
2022-12-09T20:36:30.962Z,86.16
2022-12-09T20:39:00.426Z,86.68
2022-12-09T20:41:28.122Z,84.84
2022-12-09T20:43:58.637Z,87.45
2022-12-09T20:46:30.572Z,84.62
2022-12-09T20:48:58.913Z,81.69
2022-12-09T20:51:32.336Z,85.11
2022-12-09T20:53:59.716Z,86.75
2022-12-09T20:56:27.787Z,85.50
2022-12-09T20:58:54.680Z,86.19
2022-12-09T21:01:23.795Z,85.98
2022-12-09T21:03:51.514Z,87.37
2022-12-09T21:06:20.460Z,85.14
2022-12-09T21:08:47.723Z,87.03
2022-12-09T21:11:22.882Z,83.76
2022-12-09T21:13:51.825Z,82.19
2022-12-09T21:16:27.322Z,82.83
2022-12-09T21:18:57.111Z,81.52
2022-12-09T21:21:25.639Z,80.85
2022-12-09T21:23:54.361Z,83.10
2022-12-09T21:26:23.454Z,83.92
2022-12-09T21:28:51.000Z,80.29
2022-12-09T21:31:26.537Z,81.00
2022-12-09T21:33:54.698Z,82.57
2022-12-09T21:36:23.741Z,85.64
2022-12-09T21:38:50.455Z,85.17
2022-12-09T21:41:19.335Z,85.22
2022-12-09T21:43:46.525Z,86.67
2022-12-09T21:46:17.660Z,84.29
2022-12-09T21:48:47.971Z,86.95
2022-12-09T21:51:17.579Z,86.66
2022-12-09T21:53:44.806Z,83.49
2022-12-09T21:56:15.997Z,82.16
2022-12-09T21:58:44.050Z,82.31
2022-12-09T22:01:13.966Z,85.43
2022-12-09T22:03:41.132Z,87.96
2022-12-09T22:06:08.927Z,87.60
2022-12-09T22:08:37.092Z,88.60
2022-12-09T22:11:15.088Z,85.85
2022-12-09T22:13:41.773Z,84.29
2022-12-09T22:16:15.460Z,86.47
2022-12-09T22:18:42.399Z,87.02
2022-12-09T22:21:28.122Z,88.33
2022-12-09T22:23:57.778Z,86.51
2022-12-09T22:26:24.779Z,82.13
2022-12-09T22:28:52.414Z,80.67
2022-12-09T22:31:21.825Z,81.35
2022-12-09T22:33:50.764Z,85.62
2022-12-09T22:36:17.767Z,82.07
2022-12-09T22:38:45.404Z,86.82
2022-12-09T22:41:20.859Z,86.10
2022-12-09T22:43:48.941Z,84.77
2022-12-09T22:46:19.013Z,85.57
2022-12-09T22:48:45.503Z,83.25
2022-12-09T22:51:17.117Z,84.96
2022-12-09T22:53:44.148Z,85.68
2022-12-09T22:56:11.763Z,83.88
2022-12-09T22:58:38.390Z,85.11
2022-12-09T23:01:14.308Z,84.90
2022-12-09T23:03:40.762Z,86.53
2022-12-09T23:06:07.998Z,86.47
2022-12-09T23:08:35.207Z,86.25
2022-12-09T23:11:08.163Z,83.31
2022-12-09T23:13:40.580Z,80.99
2022-12-09T23:16:09.190Z,82.38
2022-12-09T23:18:36.035Z,84.76
2022-12-09T23:21:08.807Z,85.67
2022-12-09T23:23:35.281Z,86.31
2022-12-09T23:26:10.811Z,85.92
2022-12-09T23:28:43.691Z,85.31
2022-12-09T23:31:11.980Z,86.39
2022-12-09T23:33:40.284Z,86.10
2022-12-09T23:36:07.174Z,84.02
2022-12-09T23:38:33.770Z,81.24
2022-12-09T23:41:00.345Z,82.16
2022-12-09T23:43:29.878Z,81.54
2022-12-09T23:46:00.188Z,85.35
2022-12-09T23:48:26.647Z,83.89
2022-12-09T23:50:53.903Z,85.17
2022-12-09T23:53:20.638Z,81.51
2022-12-09T23:55:47.415Z,79.98
2022-12-09T23:58:13.855Z,77.44
